sensor_id;sensor_type;location;lat;lon;timestamp;temperature;humidity
71082;SHT31;58740;50.672;18.690;2023-12-28T00:01:20;3.09;77.66
71082;SHT31;58740;50.672;18.690;2023-12-28T00:03:53;3.11;77.76
71082;SHT31;58740;50.672;18.690;2023-12-28T00:06:27;3.12;77.77
71082;SHT31;58740;50.672;18.690;2023-12-28T00:09:00;3.13;77.80
71082;SHT31;58740;50.672;18.690;2023-12-28T00:11:40;3.15;77.84
71082;SHT31;58740;50.672;18.690;2023-12-28T00:14:13;3.14;77.80
71082;SHT31;58740;50.672;18.690;2023-12-28T00:16:46;3.16;77.86
71082;SHT31;58740;50.672;18.690;2023-12-28T00:19:20;3.16;77.93
71082;SHT31;58740;50.672;18.690;2023-12-28T00:21:53;3.18;78.07
71082;SHT31;58740;50.672;18.690;2023-12-28T00:24:26;3.19;78.03
71082;SHT31;58740;50.672;18.690;2023-12-28T00:27:00;3.20;77.93
71082;SHT31;58740;50.672;18.690;2023-12-28T00:29:34;3.19;78.00
71082;SHT31;58740;50.672;18.690;2023-12-28T00:32:07;3.20;78.11
71082;SHT31;58740;50.672;18.690;2023-12-28T00:34:41;3.21;78.13
71082;SHT31;58740;50.672;18.690;2023-12-28T00:37:14;3.22;78.17
71082;SHT31;58740;50.672;18.690;2023-12-28T00:39:47;3.22;78.28
71082;SHT31;58740;50.672;18.690;2023-12-28T00:42:21;3.23;78.25
71082;SHT31;58740;50.672;18.690;2023-12-28T00:44:55;3.23;78.27
71082;SHT31;58740;50.672;18.690;2023-12-28T00:47:28;3.22;78.28
71082;SHT31;58740;50.672;18.690;2023-12-28T00:50:01;3.23;78.33
71082;SHT31;58740;50.672;18.690;2023-12-28T00:52:36;3.23;78.31
71082;SHT31;58740;50.672;18.690;2023-12-28T00:55:10;3.22;78.35
71082;SHT31;58740;50.672;18.690;2023-12-28T00:57:43;3.22;78.31
71082;SHT31;58740;50.672;18.690;2023-12-28T01:00:16;3.21;78.48
71082;SHT31;58740;50.672;18.690;2023-12-28T01:02:50;3.22;78.58
71082;SHT31;58740;50.672;18.690;2023-12-28T01:05:23;3.22;78.57
71082;SHT31;58740;50.672;18.690;2023-12-28T01:07:57;3.22;78.66
71082;SHT31;58740;50.672;18.690;2023-12-28T01:10:31;3.22;78.70
71082;SHT31;58740;50.672;18.690;2023-12-28T01:13:04;3.24;78.80
71082;SHT31;58740;50.672;18.690;2023-12-28T01:15:38;3.24;78.80
71082;SHT31;58740;50.672;18.690;2023-12-28T01:18:11;3.26;78.86
71082;SHT31;58740;50.672;18.690;2023-12-28T01:20:44;3.27;78.90
71082;SHT31;58740;50.672;18.690;2023-12-28T01:23:18;3.28;78.95
71082;SHT31;58740;50.672;18.690;2023-12-28T01:25:51;3.30;78.99
71082;SHT31;58740;50.672;18.690;2023-12-28T01:28:26;3.31;79.00
71082;SHT31;58740;50.672;18.690;2023-12-28T01:30:59;3.31;78.99
71082;SHT31;58740;50.672;18.690;2023-12-28T01:33:33;3.32;79.04
71082;SHT31;58740;50.672;18.690;2023-12-28T01:36:15;3.32;79.07
71082;SHT31;58740;50.672;18.690;2023-12-28T01:38:50;3.32;79.07
71082;SHT31;58740;50.672;18.690;2023-12-28T01:41:23;3.32;79.10
71082;SHT31;58740;50.672;18.690;2023-12-28T01:43:57;3.33;79.10
71082;SHT31;58740;50.672;18.690;2023-12-28T01:46:30;3.33;79.12
71082;SHT31;58740;50.672;18.690;2023-12-28T01:49:03;3.34;79.18
71082;SHT31;58740;50.672;18.690;2023-12-28T01:51:38;3.35;79.18
71082;SHT31;58740;50.672;18.690;2023-12-28T01:54:12;3.35;79.20
71082;SHT31;58740;50.672;18.690;2023-12-28T01:56:46;3.36;79.20
71082;SHT31;58740;50.672;18.690;2023-12-28T01:59:20;3.37;79.19
71082;SHT31;58740;50.672;18.690;2023-12-28T02:01:53;3.37;79.21
71082;SHT31;58740;50.672;18.690;2023-12-28T02:04:27;3.37;79.22
71082;SHT31;58740;50.672;18.690;2023-12-28T02:07:00;3.38;79.28
71082;SHT31;58740;50.672;18.690;2023-12-28T02:09:35;3.38;79.30
71082;SHT31;58740;50.672;18.690;2023-12-28T02:12:09;3.38;79.30
71082;SHT31;58740;50.672;18.690;2023-12-28T02:14:42;3.38;79.32
71082;SHT31;58740;50.672;18.690;2023-12-28T02:17:18;3.37;79.36
71082;SHT31;58740;50.672;18.690;2023-12-28T02:19:58;3.37;79.41
71082;SHT31;58740;50.672;18.690;2023-12-28T02:22:34;3.36;79.41
71082;SHT31;58740;50.672;18.690;2023-12-28T02:25:09;3.36;79.46
71082;SHT31;58740;50.672;18.690;2023-12-28T02:27:44;3.36;79.50
71082;SHT31;58740;50.672;18.690;2023-12-28T02:30:20;3.36;79.54
71082;SHT31;58740;50.672;18.690;2023-12-28T02:32:58;3.37;79.58
71082;SHT31;58740;50.672;18.690;2023-12-28T02:35:44;3.37;79.62
71082;SHT31;58740;50.672;18.690;2023-12-28T02:38:25;3.38;79.70
71082;SHT31;58740;50.672;18.690;2023-12-28T02:41:03;3.39;79.70
71082;SHT31;58740;50.672;18.690;2023-12-28T02:43:38;3.41;79.72
71082;SHT31;58740;50.672;18.690;2023-12-28T02:46:11;3.42;79.73
71082;SHT31;58740;50.672;18.690;2023-12-28T02:48:44;3.43;79.71
71082;SHT31;58740;50.672;18.690;2023-12-28T02:51:19;3.44;79.79
71082;SHT31;58740;50.672;18.690;2023-12-28T02:53:52;3.45;79.80
71082;SHT31;58740;50.672;18.690;2023-12-28T02:56:25;3.46;79.82
71082;SHT31;58740;50.672;18.690;2023-12-28T02:58:58;3.48;79.86
71082;SHT31;58740;50.672;18.690;2023-12-28T03:01:32;3.50;79.90
71082;SHT31;58740;50.672;18.690;2023-12-28T03:04:05;3.51;79.90
71082;SHT31;58740;50.672;18.690;2023-12-28T03:06:38;3.53;79.90
71082;SHT31;58740;50.672;18.690;2023-12-28T03:09:12;3.54;79.91
71082;SHT31;58740;50.672;18.690;2023-12-28T03:11:45;3.55;79.88
71082;SHT31;58740;50.672;18.690;2023-12-28T03:14:18;3.56;79.93
71082;SHT31;58740;50.672;18.690;2023-12-28T03:16:52;3.58;80.00
71082;SHT31;58740;50.672;18.690;2023-12-28T03:19:25;3.60;79.97
71082;SHT31;58740;50.672;18.690;2023-12-28T03:21:58;3.61;79.95
71082;SHT31;58740;50.672;18.690;2023-12-28T03:24:32;3.62;80.00
71082;SHT31;58740;50.672;18.690;2023-12-28T03:27:06;3.64;80.04
71082;SHT31;58740;50.672;18.690;2023-12-28T03:29:40;3.64;80.09
71082;SHT31;58740;50.672;18.690;2023-12-28T03:32:14;3.67;80.19
71082;SHT31;58740;50.672;18.690;2023-12-28T03:34:47;3.68;80.20
71082;SHT31;58740;50.672;18.690;2023-12-28T03:37:20;3.70;80.11
71082;SHT31;58740;50.672;18.690;2023-12-28T03:39:54;3.70;80.08
71082;SHT31;58740;50.672;18.690;2023-12-28T03:42:27;3.71;80.30
71082;SHT31;58740;50.672;18.690;2023-12-28T03:45:00;3.73;80.30
71082;SHT31;58740;50.672;18.690;2023-12-28T03:47:34;3.75;80.24
71082;SHT31;58740;50.672;18.690;2023-12-28T03:50:09;3.78;80.33
71082;SHT31;58740;50.672;18.690;2023-12-28T03:52:42;3.81;80.30
71082;SHT31;58740;50.672;18.690;2023-12-28T03:55:15;3.80;80.21
71082;SHT31;58740;50.672;18.690;2023-12-28T03:57:48;3.82;80.30
71082;SHT31;58740;50.672;18.690;2023-12-28T04:00:22;3.82;80.41
71082;SHT31;58740;50.672;18.690;2023-12-28T04:02:55;3.83;80.51
71082;SHT31;58740;50.672;18.690;2023-12-28T04:05:29;3.86;80.61
71082;SHT31;58740;50.672;18.690;2023-12-28T04:08:02;3.89;80.70
71082;SHT31;58740;50.672;18.690;2023-12-28T04:10:37;3.93;80.69
71082;SHT31;58740;50.672;18.690;2023-12-28T04:13:10;3.95;80.81
71082;SHT31;58740;50.672;18.690;2023-12-28T04:15:43;3.98;80.79
71082;SHT31;58740;50.672;18.690;2023-12-28T04:18:17;4.00;80.78
71082;SHT31;58740;50.672;18.690;2023-12-28T04:20:50;4.03;80.89
71082;SHT31;58740;50.672;18.690;2023-12-28T04:23:24;4.05;80.85
71082;SHT31;58740;50.672;18.690;2023-12-28T04:25:57;4.07;80.95
71082;SHT31;58740;50.672;18.690;2023-12-28T04:28:31;4.11;80.88
71082;SHT31;58740;50.672;18.690;2023-12-28T04:31:05;4.14;80.96
71082;SHT31;58740;50.672;18.690;2023-12-28T04:33:38;4.16;81.00
71082;SHT31;58740;50.672;18.690;2023-12-28T04:36:12;4.20;80.98
71082;SHT31;58740;50.672;18.690;2023-12-28T04:38:45;4.22;80.95
71082;SHT31;58740;50.672;18.690;2023-12-28T04:41:19;4.24;80.94
71082;SHT31;58740;50.672;18.690;2023-12-28T04:43:52;4.27;81.09
71082;SHT31;58740;50.672;18.690;2023-12-28T04:46:25;4.31;81.08
71082;SHT31;58740;50.672;18.690;2023-12-28T04:48:58;4.36;81.06
71082;SHT31;58740;50.672;18.690;2023-12-28T04:51:31;4.40;81.14
71082;SHT31;58740;50.672;18.690;2023-12-28T04:54:05;4.45;81.02
71082;SHT31;58740;50.672;18.690;2023-12-28T04:56:38;4.47;80.91
71082;SHT31;58740;50.672;18.690;2023-12-28T04:59:11;4.49;80.90
71082;SHT31;58740;50.672;18.690;2023-12-28T05:01:44;4.51;80.97
71082;SHT31;58740;50.672;18.690;2023-12-28T05:04:18;4.55;81.00
71082;SHT31;58740;50.672;18.690;2023-12-28T05:06:51;4.59;80.93
71082;SHT31;58740;50.672;18.690;2023-12-28T05:09:24;4.61;80.85
71082;SHT31;58740;50.672;18.690;2023-12-28T05:11:58;4.64;80.86
71082;SHT31;58740;50.672;18.690;2023-12-28T05:14:31;4.66;80.80
71082;SHT31;58740;50.672;18.690;2023-12-28T05:17:04;4.70;80.82
71082;SHT31;58740;50.672;18.690;2023-12-28T05:19:37;4.72;80.70
71082;SHT31;58740;50.672;18.690;2023-12-28T05:22:11;4.74;80.74
71082;SHT31;58740;50.672;18.690;2023-12-28T05:24:44;4.75;80.73
71082;SHT31;58740;50.672;18.690;2023-12-28T05:27:17;4.79;80.69
71082;SHT31;58740;50.672;18.690;2023-12-28T05:29:51;4.81;80.54
71082;SHT31;58740;50.672;18.690;2023-12-28T05:32:24;4.82;80.53
71082;SHT31;58740;50.672;18.690;2023-12-28T05:34:57;4.83;80.51
71082;SHT31;58740;50.672;18.690;2023-12-28T05:37:32;4.82;80.52
71082;SHT31;58740;50.672;18.690;2023-12-28T05:40:06;4.84;80.50
71082;SHT31;58740;50.672;18.690;2023-12-28T05:42:41;4.84;80.45
71082;SHT31;58740;50.672;18.690;2023-12-28T05:45:14;4.85;80.44
71082;SHT31;58740;50.672;18.690;2023-12-28T05:47:48;4.86;80.50
71082;SHT31;58740;50.672;18.690;2023-12-28T05:50:21;4.88;80.44
71082;SHT31;58740;50.672;18.690;2023-12-28T05:52:55;4.89;80.40
71082;SHT31;58740;50.672;18.690;2023-12-28T05:55:28;4.91;80.39
71082;SHT31;58740;50.672;18.690;2023-12-28T05:58:02;4.93;80.34
71082;SHT31;58740;50.672;18.690;2023-12-28T06:00:36;4.93;80.30
71082;SHT31;58740;50.672;18.690;2023-12-28T06:03:09;4.93;80.36
71082;SHT31;58740;50.672;18.690;2023-12-28T06:05:42;4.94;80.28
71082;SHT31;58740;50.672;18.690;2023-12-28T06:08:16;4.94;80.30
71082;SHT31;58740;50.672;18.690;2023-12-28T06:10:50;4.94;80.32
71082;SHT31;58740;50.672;18.690;2023-12-28T06:13:23;4.94;80.36
71082;SHT31;58740;50.672;18.690;2023-12-28T06:15:56;4.95;80.35
71082;SHT31;58740;50.672;18.690;2023-12-28T06:18:30;4.95;80.30
71082;SHT31;58740;50.672;18.690;2023-12-28T06:21:04;4.95;80.30
71082;SHT31;58740;50.672;18.690;2023-12-28T06:23:39;4.97;80.30
71082;SHT31;58740;50.672;18.690;2023-12-28T06:26:12;4.97;80.30
71082;SHT31;58740;50.672;18.690;2023-12-28T06:28:49;4.99;80.30
71082;SHT31;58740;50.672;18.690;2023-12-28T06:31:22;4.99;80.29
71082;SHT31;58740;50.672;18.690;2023-12-28T06:33:56;4.98;80.30
71082;SHT31;58740;50.672;18.690;2023-12-28T06:36:29;4.99;80.30
71082;SHT31;58740;50.672;18.690;2023-12-28T06:39:03;5.00;80.30
71082;SHT31;58740;50.672;18.690;2023-12-28T06:41:36;5.01;80.22
71082;SHT31;58740;50.672;18.690;2023-12-28T06:44:12;5.01;80.20
71082;SHT31;58740;50.672;18.690;2023-12-28T06:46:45;5.01;80.24
71082;SHT31;58740;50.672;18.690;2023-12-28T06:49:18;5.03;80.21
71082;SHT31;58740;50.672;18.690;2023-12-28T06:51:52;5.03;80.23
71082;SHT31;58740;50.672;18.690;2023-12-28T06:54:26;5.04;80.22
71082;SHT31;58740;50.672;18.690;2023-12-28T06:56:59;5.05;80.20
71082;SHT31;58740;50.672;18.690;2023-12-28T06:59:32;5.05;80.20
71082;SHT31;58740;50.672;18.690;2023-12-28T07:02:05;5.05;80.22
71082;SHT31;58740;50.672;18.690;2023-12-28T07:04:39;5.05;80.26
71082;SHT31;58740;50.672;18.690;2023-12-28T07:07:12;5.05;80.27
71082;SHT31;58740;50.672;18.690;2023-12-28T07:09:45;5.08;80.22
71082;SHT31;58740;50.672;18.690;2023-12-28T07:12:18;5.09;80.24
71082;SHT31;58740;50.672;18.690;2023-12-28T07:14:52;5.09;80.22
71082;SHT31;58740;50.672;18.690;2023-12-28T07:17:26;5.09;80.20
71082;SHT31;58740;50.672;18.690;2023-12-28T07:19:59;5.13;80.21
71082;SHT31;58740;50.672;18.690;2023-12-28T07:22:33;5.13;80.17
71082;SHT31;58740;50.672;18.690;2023-12-28T07:25:06;5.15;80.16
71082;SHT31;58740;50.672;18.690;2023-12-28T07:27:40;5.16;80.11
71082;SHT31;58740;50.672;18.690;2023-12-28T07:30:13;5.18;80.10
71082;SHT31;58740;50.672;18.690;2023-12-28T07:32:47;5.21;80.02
71082;SHT31;58740;50.672;18.690;2023-12-28T07:35:21;5.23;80.00
71082;SHT31;58740;50.672;18.690;2023-12-28T07:37:55;5.26;79.95
71082;SHT31;58740;50.672;18.690;2023-12-28T07:40:29;5.29;79.91
71082;SHT31;58740;50.672;18.690;2023-12-28T07:43:02;5.32;79.79
71082;SHT31;58740;50.672;18.690;2023-12-28T07:45:35;5.35;79.74
71082;SHT31;58740;50.672;18.690;2023-12-28T07:48:10;5.36;79.71
71082;SHT31;58740;50.672;18.690;2023-12-28T07:50:44;5.38;79.66
71082;SHT31;58740;50.672;18.690;2023-12-28T07:53:18;5.40;79.60
71082;SHT31;58740;50.672;18.690;2023-12-28T07:55:51;5.41;79.56
71082;SHT31;58740;50.672;18.690;2023-12-28T07:58:25;5.44;79.51
71082;SHT31;58740;50.672;18.690;2023-12-28T08:00:58;5.47;79.43
71082;SHT31;58740;50.672;18.690;2023-12-28T08:03:31;5.49;79.42
71082;SHT31;58740;50.672;18.690;2023-12-28T08:06:05;5.51;79.36
71082;SHT31;58740;50.672;18.690;2023-12-28T08:08:41;5.54;79.23
71082;SHT31;58740;50.672;18.690;2023-12-28T08:11:15;5.56;79.22
71082;SHT31;58740;50.672;18.690;2023-12-28T08:13:48;5.57;79.24
71082;SHT31;58740;50.672;18.690;2023-12-28T08:16:21;5.59;79.17
71082;SHT31;58740;50.672;18.690;2023-12-28T08:18:55;5.60;79.12
71082;SHT31;58740;50.672;18.690;2023-12-28T08:21:28;5.63;79.03
71082;SHT31;58740;50.672;18.690;2023-12-28T08:24:02;5.64;78.94
71082;SHT31;58740;50.672;18.690;2023-12-28T08:26:36;5.66;78.90
71082;SHT31;58740;50.672;18.690;2023-12-28T08:29:09;5.70;78.89
71082;SHT31;58740;50.672;18.690;2023-12-28T08:31:42;5.73;78.81
71082;SHT31;58740;50.672;18.690;2023-12-28T08:34:16;5.75;78.78
71082;SHT31;58740;50.672;18.690;2023-12-28T08:36:49;5.79;78.74
71082;SHT31;58740;50.672;18.690;2023-12-28T08:39:23;5.84;78.46
71082;SHT31;58740;50.672;18.690;2023-12-28T08:41:56;5.89;78.47
71082;SHT31;58740;50.672;18.690;2023-12-28T08:44:30;5.92;78.33
71082;SHT31;58740;50.672;18.690;2023-12-28T08:47:05;5.96;78.29
71082;SHT31;58740;50.672;18.690;2023-12-28T08:49:38;6.01;78.24
71082;SHT31;58740;50.672;18.690;2023-12-28T08:52:12;6.05;78.18
71082;SHT31;58740;50.672;18.690;2023-12-28T08:54:47;6.08;78.13
71082;SHT31;58740;50.672;18.690;2023-12-28T08:57:20;6.13;77.91
71082;SHT31;58740;50.672;18.690;2023-12-28T09:00:11;6.17;77.81
71082;SHT31;58740;50.672;18.690;2023-12-28T09:02:46;6.22;77.66
71082;SHT31;58740;50.672;18.690;2023-12-28T09:05:20;6.27;77.67
71082;SHT31;58740;50.672;18.690;2023-12-28T09:07:53;6.30;77.67
71082;SHT31;58740;50.672;18.690;2023-12-28T09:10:27;6.33;77.64
71082;SHT31;58740;50.672;18.690;2023-12-28T09:13:00;6.36;77.66
71082;SHT31;58740;50.672;18.690;2023-12-28T09:15:35;6.41;77.60
71082;SHT31;58740;50.672;18.690;2023-12-28T09:18:09;6.42;77.46
71082;SHT31;58740;50.672;18.690;2023-12-28T09:20:42;6.46;77.48
71082;SHT31;58740;50.672;18.690;2023-12-28T09:23:16;6.49;77.33
71082;SHT31;58740;50.672;18.690;2023-12-28T09:25:49;6.53;77.28
71082;SHT31;58740;50.672;18.690;2023-12-28T09:28:22;6.57;77.40
71082;SHT31;58740;50.672;18.690;2023-12-28T09:30:56;6.63;77.18
71082;SHT31;58740;50.672;18.690;2023-12-28T09:33:30;6.68;77.13
71082;SHT31;58740;50.672;18.690;2023-12-28T09:36:04;6.72;77.08
71082;SHT31;58740;50.672;18.690;2023-12-28T09:38:41;6.76;77.01
71082;SHT31;58740;50.672;18.690;2023-12-28T09:41:15;6.80;77.09
71082;SHT31;58740;50.672;18.690;2023-12-28T09:43:53;6.84;77.26
71082;SHT31;58740;50.672;18.690;2023-12-28T09:46:33;6.90;77.14
71082;SHT31;58740;50.672;18.690;2023-12-28T09:49:08;6.95;76.83
71082;SHT31;58740;50.672;18.690;2023-12-28T09:51:42;6.98;76.87
71082;SHT31;58740;50.672;18.690;2023-12-28T09:54:17;7.00;76.90
71082;SHT31;58740;50.672;18.690;2023-12-28T09:56:51;7.02;76.57
71082;SHT31;58740;50.672;18.690;2023-12-28T09:59:25;7.04;76.68
71082;SHT31;58740;50.672;18.690;2023-12-28T10:02:01;7.06;76.44
71082;SHT31;58740;50.672;18.690;2023-12-28T10:04:35;7.07;76.58
71082;SHT31;58740;50.672;18.690;2023-12-28T10:07:09;7.09;76.35
71082;SHT31;58740;50.672;18.690;2023-12-28T10:09:43;7.12;76.33
71082;SHT31;58740;50.672;18.690;2023-12-28T10:12:16;7.14;76.30
71082;SHT31;58740;50.672;18.690;2023-12-28T10:14:51;7.16;76.16
71082;SHT31;58740;50.672;18.690;2023-12-28T10:17:25;7.19;76.23
71082;SHT31;58740;50.672;18.690;2023-12-28T10:19:58;7.23;76.08
71082;SHT31;58740;50.672;18.690;2023-12-28T10:22:33;7.26;76.19
71082;SHT31;58740;50.672;18.690;2023-12-28T10:25:07;7.31;76.15
71082;SHT31;58740;50.672;18.690;2023-12-28T10:27:41;7.37;76.05
71082;SHT31;58740;50.672;18.690;2023-12-28T10:30:15;7.41;76.03
71082;SHT31;58740;50.672;18.690;2023-12-28T10:32:50;7.48;76.00
71082;SHT31;58740;50.672;18.690;2023-12-28T10:35:24;7.53;75.81
71082;SHT31;58740;50.672;18.690;2023-12-28T10:37:59;7.61;75.82
71082;SHT31;58740;50.672;18.690;2023-12-28T10:40:34;7.70;75.57
71082;SHT31;58740;50.672;18.690;2023-12-28T10:43:08;7.80;75.35
71082;SHT31;58740;50.672;18.690;2023-12-28T10:45:50;7.88;75.25
71082;SHT31;58740;50.672;18.690;2023-12-28T10:48:28;7.97;74.59
71082;SHT31;58740;50.672;18.690;2023-12-28T10:51:09;8.04;74.67
71082;SHT31;58740;50.672;18.690;2023-12-28T10:53:48;8.08;74.44
71082;SHT31;58740;50.672;18.690;2023-12-28T10:56:31;8.11;74.32
71082;SHT31;58740;50.672;18.690;2023-12-28T10:59:20;8.12;74.12
71082;SHT31;58740;50.672;18.690;2023-12-28T11:02:14;8.09;73.88
71082;SHT31;58740;50.672;18.690;2023-12-28T11:04:51;8.07;74.11
71082;SHT31;58740;50.672;18.690;2023-12-28T11:07:26;8.06;74.16
71082;SHT31;58740;50.672;18.690;2023-12-28T11:10:02;8.06;73.95
71082;SHT31;58740;50.672;18.690;2023-12-28T11:12:39;8.07;73.78
71082;SHT31;58740;50.672;18.690;2023-12-28T11:15:15;8.06;73.80
71082;SHT31;58740;50.672;18.690;2023-12-28T11:17:49;8.05;73.87
71082;SHT31;58740;50.672;18.690;2023-12-28T11:20:23;8.06;73.77
71082;SHT31;58740;50.672;18.690;2023-12-28T11:22:57;8.06;73.51
71082;SHT31;58740;50.672;18.690;2023-12-28T11:25:31;8.05;73.57
71082;SHT31;58740;50.672;18.690;2023-12-28T11:28:10;8.04;73.61
71082;SHT31;58740;50.672;18.690;2023-12-28T11:30:44;8.03;73.91
71082;SHT31;58740;50.672;18.690;2023-12-28T11:33:21;8.02;74.50
71082;SHT31;58740;50.672;18.690;2023-12-28T11:36:00;8.01;74.97
71082;SHT31;58740;50.672;18.690;2023-12-28T11:38:39;7.99;75.33
71082;SHT31;58740;50.672;18.690;2023-12-28T11:41:17;8.01;75.52
71082;SHT31;58740;50.672;18.690;2023-12-28T11:43:55;8.02;75.47
71082;SHT31;58740;50.672;18.690;2023-12-28T11:46:31;8.02;75.47
71082;SHT31;58740;50.672;18.690;2023-12-28T11:49:07;8.03;75.28
71082;SHT31;58740;50.672;18.690;2023-12-28T11:51:41;8.04;75.23
71082;SHT31;58740;50.672;18.690;2023-12-28T11:54:24;8.06;75.16
71082;SHT31;58740;50.672;18.690;2023-12-28T11:56:57;8.07;74.97
71082;SHT31;58740;50.672;18.690;2023-12-28T11:59:31;8.08;75.02
71082;SHT31;58740;50.672;18.690;2023-12-28T12:02:04;8.09;74.98
71082;SHT31;58740;50.672;18.690;2023-12-28T12:04:39;8.10;75.06
71082;SHT31;58740;50.672;18.690;2023-12-28T12:07:13;8.10;75.00
71082;SHT31;58740;50.672;18.690;2023-12-28T12:09:46;8.11;74.89
71082;SHT31;58740;50.672;18.690;2023-12-28T12:12:19;8.11;74.87
71082;SHT31;58740;50.672;18.690;2023-12-28T12:14:53;8.13;74.77
71082;SHT31;58740;50.672;18.690;2023-12-28T12:17:26;8.16;74.72
71082;SHT31;58740;50.672;18.690;2023-12-28T12:19:59;8.17;74.88
71082;SHT31;58740;50.672;18.690;2023-12-28T12:22:34;8.18;74.86
71082;SHT31;58740;50.672;18.690;2023-12-28T12:25:08;8.19;74.81
71082;SHT31;58740;50.672;18.690;2023-12-28T12:27:42;8.19;74.75
71082;SHT31;58740;50.672;18.690;2023-12-28T12:30:15;8.20;74.75
71082;SHT31;58740;50.672;18.690;2023-12-28T12:32:49;8.20;74.74
71082;SHT31;58740;50.672;18.690;2023-12-28T12:35:23;8.20;74.72
71082;SHT31;58740;50.672;18.690;2023-12-28T12:37:57;8.20;74.69
71082;SHT31;58740;50.672;18.690;2023-12-28T12:40:30;8.20;74.67
71082;SHT31;58740;50.672;18.690;2023-12-28T12:43:04;8.21;74.63
71082;SHT31;58740;50.672;18.690;2023-12-28T12:45:39;8.19;74.62
71082;SHT31;58740;50.672;18.690;2023-12-28T12:48:15;8.18;74.73
71082;SHT31;58740;50.672;18.690;2023-12-28T12:50:49;8.16;74.79
71082;SHT31;58740;50.672;18.690;2023-12-28T12:53:22;8.16;74.68
71082;SHT31;58740;50.672;18.690;2023-12-28T12:56:02;8.15;74.74
71082;SHT31;58740;50.672;18.690;2023-12-28T12:58:37;8.13;74.75
71082;SHT31;58740;50.672;18.690;2023-12-28T13:01:11;8.10;74.80
71082;SHT31;58740;50.672;18.690;2023-12-28T13:03:44;8.09;74.91
71082;SHT31;58740;50.672;18.690;2023-12-28T13:06:18;8.07;75.00
71082;SHT31;58740;50.672;18.690;2023-12-28T13:08:52;8.06;75.09
71082;SHT31;58740;50.672;18.690;2023-12-28T13:11:26;8.05;75.01
71082;SHT31;58740;50.672;18.690;2023-12-28T13:13:59;8.04;75.01
71082;SHT31;58740;50.672;18.690;2023-12-28T13:16:33;8.01;75.08
71082;SHT31;58740;50.672;18.690;2023-12-28T13:19:06;7.98;75.14
71082;SHT31;58740;50.672;18.690;2023-12-28T13:21:39;7.98;75.13
71082;SHT31;58740;50.672;18.690;2023-12-28T13:24:13;7.96;75.14
71082;SHT31;58740;50.672;18.690;2023-12-28T13:26:46;7.94;75.14
71082;SHT31;58740;50.672;18.690;2023-12-28T13:29:19;7.93;75.16
71082;SHT31;58740;50.672;18.690;2023-12-28T13:31:53;7.91;75.19
71082;SHT31;58740;50.672;18.690;2023-12-28T13:34:27;7.89;75.17
71082;SHT31;58740;50.672;18.690;2023-12-28T13:37:00;7.87;75.15
71082;SHT31;58740;50.672;18.690;2023-12-28T13:39:33;7.87;75.14
71082;SHT31;58740;50.672;18.690;2023-12-28T13:42:08;7.85;75.19
71082;SHT31;58740;50.672;18.690;2023-12-28T13:44:41;7.83;75.15
71082;SHT31;58740;50.672;18.690;2023-12-28T13:47:14;7.82;75.24
71082;SHT31;58740;50.672;18.690;2023-12-28T13:49:48;7.79;75.28
71082;SHT31;58740;50.672;18.690;2023-12-28T13:52:21;7.77;75.27
71082;SHT31;58740;50.672;18.690;2023-12-28T13:54:54;7.75;75.38
71082;SHT31;58740;50.672;18.690;2023-12-28T13:57:28;7.75;75.38
71082;SHT31;58740;50.672;18.690;2023-12-28T14:00:01;7.74;75.37
71082;SHT31;58740;50.672;18.690;2023-12-28T14:02:36;7.71;75.42
71082;SHT31;58740;50.672;18.690;2023-12-28T14:05:09;7.68;75.46
71082;SHT31;58740;50.672;18.690;2023-12-28T14:07:43;7.66;75.52
71082;SHT31;58740;50.672;18.690;2023-12-28T14:10:17;7.66;75.54
71082;SHT31;58740;50.672;18.690;2023-12-28T14:12:50;7.65;75.58
71082;SHT31;58740;50.672;18.690;2023-12-28T14:15:24;7.63;75.52
71082;SHT31;58740;50.672;18.690;2023-12-28T14:17:57;7.62;75.60
71082;SHT31;58740;50.672;18.690;2023-12-28T14:20:34;7.63;75.58
71082;SHT31;58740;50.672;18.690;2023-12-28T14:23:07;7.62;75.46
71082;SHT31;58740;50.672;18.690;2023-12-28T14:25:42;7.61;75.54
71082;SHT31;58740;50.672;18.690;2023-12-28T14:28:22;7.60;75.61
71082;SHT31;58740;50.672;18.690;2023-12-28T14:31:01;7.58;75.68
71082;SHT31;58740;50.672;18.690;2023-12-28T14:33:37;7.56;75.69
71082;SHT31;58740;50.672;18.690;2023-12-28T14:36:14;7.55;75.70
71082;SHT31;58740;50.672;18.690;2023-12-28T14:38:57;7.52;75.70
71082;SHT31;58740;50.672;18.690;2023-12-28T14:41:34;7.50;75.75
71082;SHT31;58740;50.672;18.690;2023-12-28T14:44:12;7.49;75.80
71082;SHT31;58740;50.672;18.690;2023-12-28T14:46:46;7.47;75.82
71082;SHT31;58740;50.672;18.690;2023-12-28T14:49:19;7.45;75.90
71082;SHT31;58740;50.672;18.690;2023-12-28T14:51:52;7.43;75.93
71082;SHT31;58740;50.672;18.690;2023-12-28T14:54:25;7.42;76.00
71082;SHT31;58740;50.672;18.690;2023-12-28T14:56:59;7.39;76.01
71082;SHT31;58740;50.672;18.690;2023-12-28T14:59:32;7.39;76.10
71082;SHT31;58740;50.672;18.690;2023-12-28T15:02:05;7.36;76.14
71082;SHT31;58740;50.672;18.690;2023-12-28T15:04:38;7.35;76.20
71082;SHT31;58740;50.672;18.690;2023-12-28T15:07:12;7.34;76.26
71082;SHT31;58740;50.672;18.690;2023-12-28T15:09:46;7.30;76.31
71082;SHT31;58740;50.672;18.690;2023-12-28T15:12:22;7.28;76.40
71082;SHT31;58740;50.672;18.690;2023-12-28T15:14:57;7.25;76.43
71082;SHT31;58740;50.672;18.690;2023-12-28T15:17:31;7.24;76.46
71082;SHT31;58740;50.672;18.690;2023-12-28T15:20:07;7.23;76.50
71082;SHT31;58740;50.672;18.690;2023-12-28T15:22:43;7.22;76.50
71082;SHT31;58740;50.672;18.690;2023-12-28T15:25:18;7.20;76.53
71082;SHT31;58740;50.672;18.690;2023-12-28T15:27:51;7.19;76.60
71082;SHT31;58740;50.672;18.690;2023-12-28T15:30:26;7.16;76.69
71082;SHT31;58740;50.672;18.690;2023-12-28T15:32:59;7.14;76.71
71082;SHT31;58740;50.672;18.690;2023-12-28T15:35:34;7.11;76.78
71082;SHT31;58740;50.672;18.690;2023-12-28T15:38:10;7.10;76.84
71082;SHT31;58740;50.672;18.690;2023-12-28T15:40:44;7.07;76.90
71082;SHT31;58740;50.672;18.690;2023-12-28T15:43:19;7.06;76.87
71082;SHT31;58740;50.672;18.690;2023-12-28T15:45:52;7.05;76.94
71082;SHT31;58740;50.672;18.690;2023-12-28T15:48:25;7.02;77.00
71082;SHT31;58740;50.672;18.690;2023-12-28T15:50:58;7.01;77.02
71082;SHT31;58740;50.672;18.690;2023-12-28T15:53:32;6.99;77.07
71082;SHT31;58740;50.672;18.690;2023-12-28T15:56:06;6.98;77.11
71082;SHT31;58740;50.672;18.690;2023-12-28T15:58:48;6.97;77.10
71082;SHT31;58740;50.672;18.690;2023-12-28T16:01:21;6.95;77.14
71082;SHT31;58740;50.672;18.690;2023-12-28T16:03:55;6.94;77.20
71082;SHT31;58740;50.672;18.690;2023-12-28T16:06:28;6.93;77.21
71082;SHT31;58740;50.672;18.690;2023-12-28T16:09:02;6.90;77.21
71082;SHT31;58740;50.672;18.690;2023-12-28T16:11:35;6.88;77.28
71082;SHT31;58740;50.672;18.690;2023-12-28T16:14:08;6.86;77.33